sensor_id;sensor_type;location;lat;lon;timestamp;pressure;altitude;pressure_sealevel;temperature;humidity
23433;BME280;41331;45.412;10.992;2023-01-09T00:01:10;99905.69;;;9.19;100.00
23433;BME280;41331;45.412;10.992;2023-01-09T00:03:38;99910.41;;;9.10;100.00
23433;BME280;41331;45.412;10.992;2023-01-09T00:06:06;99905.66;;;8.98;100.00
23433;BME280;41331;45.412;10.992;2023-01-09T00:08:33;99910.66;;;8.96;100.00
23433;BME280;41331;45.412;10.992;2023-01-09T00:11:00;99907.97;;;8.87;100.00
23433;BME280;41331;45.412;10.992;2023-01-09T00:13:28;99895.53;;;8.86;100.00
23433;BME280;41331;45.412;10.992;2023-01-09T00:15:55;99888.97;;;8.87;100.00
23433;BME280;41331;45.412;10.992;2023-01-09T00:18:22;99875.91;;;8.89;100.00
23433;BME280;41331;45.412;10.992;2023-01-09T00:20:50;99864.25;;;9.10;100.00
23433;BME280;41331;45.412;10.992;2023-01-09T00:23:17;99852.91;;;9.07;100.00
23433;BME280;41331;45.412;10.992;2023-01-09T00:25:45;99839.84;;;9.22;100.00
23433;BME280;41331;45.412;10.992;2023-01-09T00:28:12;99838.91;;;9.18;100.00
23433;BME280;41331;45.412;10.992;2023-01-09T00:30:39;99840.56;;;9.31;100.00
23433;BME280;41331;45.412;10.992;2023-01-09T00:33:07;99832.75;;;9.29;100.00
23433;BME280;41331;45.412;10.992;2023-01-09T00:35:34;99830.50;;;9.31;100.00
23433;BME280;41331;45.412;10.992;2023-01-09T00:38:02;99818.41;;;9.29;100.00
23433;BME280;41331;45.412;10.992;2023-01-09T00:40:29;99804.91;;;9.20;100.00
23433;BME280;41331;45.412;10.992;2023-01-09T00:42:57;99800.84;;;9.26;100.00
23433;BME280;41331;45.412;10.992;2023-01-09T00:45:25;99797.41;;;9.17;100.00
23433;BME280;41331;45.412;10.992;2023-01-09T00:48:06;99777.25;;;9.06;100.00
23433;BME280;41331;45.412;10.992;2023-01-09T00:50:35;99776.59;;;9.09;100.00
23433;BME280;41331;45.412;10.992;2023-01-09T00:53:10;99785.84;;;9.08;100.00
23433;BME280;41331;45.412;10.992;2023-01-09T00:55:39;99789.41;;;9.21;100.00
23433;BME280;41331;45.412;10.992;2023-01-09T00:58:08;99778.28;;;9.14;100.00
23433;BME280;41331;45.412;10.992;2023-01-09T01:00:35;99781.19;;;9.08;100.00
23433;BME280;41331;45.412;10.992;2023-01-09T01:03:03;99795.03;;;9.16;100.00
23433;BME280;41331;45.412;10.992;2023-01-09T01:05:30;99794.81;;;9.21;100.00
23433;BME280;41331;45.412;10.992;2023-01-09T01:08:18;99791.44;;;9.24;100.00
23433;BME280;41331;45.412;10.992;2023-01-09T01:10:47;99788.97;;;9.31;100.00
23433;BME280;41331;45.412;10.992;2023-01-09T01:13:15;99785.63;;;9.13;100.00
23433;BME280;41331;45.412;10.992;2023-01-09T01:15:44;99788.97;;;9.31;100.00
23433;BME280;41331;45.412;10.992;2023-01-09T01:18:13;99785.38;;;9.39;100.00
23433;BME280;41331;45.412;10.992;2023-01-09T01:20:42;99783.41;;;9.27;100.00
23433;BME280;41331;45.412;10.992;2023-01-09T01:23:10;99788.41;;;9.38;100.00
23433;BME280;41331;45.412;10.992;2023-01-09T01:25:40;99779.47;;;9.37;100.00
23433;BME280;41331;45.412;10.992;2023-01-09T01:28:08;99785.47;;;9.30;100.00
23433;BME280;41331;45.412;10.992;2023-01-09T01:30:38;99780.97;;;9.34;100.00
23433;BME280;41331;45.412;10.992;2023-01-09T01:33:07;99785.97;;;9.45;100.00
23433;BME280;41331;45.412;10.992;2023-01-09T01:35:36;99777.03;;;9.44;100.00
23433;BME280;41331;45.412;10.992;2023-01-09T01:38:03;99774.19;;;9.41;100.00
23433;BME280;41331;45.412;10.992;2023-01-09T01:40:31;99771.69;;;9.36;100.00
23433;BME280;41331;45.412;10.992;2023-01-09T01:42:59;99770.31;;;9.29;100.00
23433;BME280;41331;45.412;10.992;2023-01-09T01:45:28;99769.16;;;9.30;100.00
23433;BME280;41331;45.412;10.992;2023-01-09T01:50:52;99767.25;;;9.31;100.00
23433;BME280;41331;45.412;10.992;2023-01-09T01:53:28;99770.53;;;9.37;100.00
23433;BME280;41331;45.412;10.992;2023-01-09T01:56:06;99774.72;;;9.34;100.00
23433;BME280;41331;45.412;10.992;2023-01-09T01:58:52;99774.91;;;9.17;100.00
23433;BME280;41331;45.412;10.992;2023-01-09T02:01:22;99774.34;;;9.23;100.00
23433;BME280;41331;45.412;10.992;2023-01-09T02:03:52;99772.44;;;9.24;100.00
23433;BME280;41331;45.412;10.992;2023-01-09T02:06:21;99769.03;;;9.27;100.00
23433;BME280;41331;45.412;10.992;2023-01-09T02:08:49;99772.53;;;9.27;100.00
23433;BME280;41331;45.412;10.992;2023-01-09T02:11:18;99779.91;;;9.27;100.00
23433;BME280;41331;45.412;10.992;2023-01-09T02:13:46;99782.13;;;9.13;100.00
23433;BME280;41331;45.412;10.992;2023-01-09T02:22:07;99775.06;;;8.99;100.00
23433;BME280;41331;45.412;10.992;2023-01-09T02:40:33;99759.41;;;8.84;100.00
23433;BME280;41331;45.412;10.992;2023-01-09T02:43:03;99755.91;;;8.84;100.00
23433;BME280;41331;45.412;10.992;2023-01-09T02:45:31;99746.03;;;8.79;100.00
23433;BME280;41331;45.412;10.992;2023-01-09T02:47:59;99734.84;;;8.80;100.00
23433;BME280;41331;45.412;10.992;2023-01-09T02:50:32;99736.78;;;8.80;100.00
23433;BME280;41331;45.412;10.992;2023-01-09T03:01:57;99734.72;;;8.77;100.00
23433;BME280;41331;45.412;10.992;2023-01-09T03:04:49;99748.28;;;8.77;100.00
23433;BME280;41331;45.412;10.992;2023-01-09T03:07:32;99745.53;;;8.44;100.00
23433;BME280;41331;45.412;10.992;2023-01-09T03:10:22;99744.84;;;8.47;100.00
23433;BME280;41331;45.412;10.992;2023-01-09T03:12:52;99751.94;;;8.39;100.00
23433;BME280;41331;45.412;10.992;2023-01-09T03:15:25;99752.09;;;8.34;100.00
23433;BME280;41331;45.412;10.992;2023-01-09T03:17:55;99739.06;;;8.27;100.00
23433;BME280;41331;45.412;10.992;2023-01-09T03:20:25;99745.59;;;8.26;100.00
23433;BME280;41331;45.412;10.992;2023-01-09T03:22:58;99749.88;;;8.36;100.00
23433;BME280;41331;45.412;10.992;2023-01-09T03:25:27;99743.22;;;8.25;100.00
23433;BME280;41331;45.412;10.992;2023-01-09T03:27:58;99744.47;;;8.27;100.00
23433;BME280;41331;45.412;10.992;2023-01-09T03:30:27;99738.94;;;8.24;100.00
23433;BME280;41331;45.412;10.992;2023-01-09T03:32:55;99742.50;;;8.16;100.00
23433;BME280;41331;45.412;10.992;2023-01-09T03:35:24;99740.91;;;8.15;100.00
23433;BME280;41331;45.412;10.992;2023-01-09T03:37:51;99737.72;;;8.13;100.00
23433;BME280;41331;45.412;10.992;2023-01-09T03:40:19;99751.47;;;8.08;100.00
23433;BME280;41331;45.412;10.992;2023-01-09T03:42:47;99737.91;;;8.08;100.00
23433;BME280;41331;45.412;10.992;2023-01-09T03:45:14;99748.44;;;8.09;100.00
23433;BME280;41331;45.412;10.992;2023-01-09T03:47:41;99731.66;;;8.16;100.00
23433;BME280;41331;45.412;10.992;2023-01-09T03:50:09;99723.06;;;8.14;100.00
23433;BME280;41331;45.412;10.992;2023-01-09T03:52:37;99721.44;;;8.13;100.00
23433;BME280;41331;45.412;10.992;2023-01-09T03:55:04;99711.78;;;8.03;100.00
23433;BME280;41331;45.412;10.992;2023-01-09T03:57:31;99707.00;;;8.09;100.00
23433;BME280;41331;45.412;10.992;2023-01-09T03:59:59;99704.94;;;8.05;100.00
23433;BME280;41331;45.412;10.992;2023-01-09T04:02:26;99710.69;;;8.04;100.00
23433;BME280;41331;45.412;10.992;2023-01-09T04:04:54;99708.28;;;8.02;100.00
23433;BME280;41331;45.412;10.992;2023-01-09T04:07:21;99700.34;;;7.97;100.00
23433;BME280;41331;45.412;10.992;2023-01-09T04:09:48;99706.84;;;8.05;100.00
23433;BME280;41331;45.412;10.992;2023-01-09T04:12:16;99708.78;;;8.04;100.00
23433;BME280;41331;45.412;10.992;2023-01-09T04:14:43;99702.69;;;8.08;100.00
23433;BME280;41331;45.412;10.992;2023-01-09T04:17:11;99704.88;;;8.14;100.00
23433;BME280;41331;45.412;10.992;2023-01-09T04:19:38;99705.53;;;8.11;100.00
23433;BME280;41331;45.412;10.992;2023-01-09T04:22:06;99704.28;;;8.09;100.00
23433;BME280;41331;45.412;10.992;2023-01-09T04:24:33;99689.69;;;7.92;100.00
23433;BME280;41331;45.412;10.992;2023-01-09T04:27:00;99691.63;;;7.92;100.00
23433;BME280;41331;45.412;10.992;2023-01-09T04:29:28;99677.28;;;7.91;100.00
23433;BME280;41331;45.412;10.992;2023-01-09T04:31:55;99670.88;;;7.96;100.00
23433;BME280;41331;45.412;10.992;2023-01-09T04:34:22;99672.53;;;7.88;100.00
23433;BME280;41331;45.412;10.992;2023-01-09T04:36:51;99669.94;;;7.92;100.00
23433;BME280;41331;45.412;10.992;2023-01-09T04:39:20;99663.59;;;7.88;100.00
23433;BME280;41331;45.412;10.992;2023-01-09T04:41:48;99672.84;;;7.87;100.00
23433;BME280;41331;45.412;10.992;2023-01-09T04:44:17;99676.88;;;7.81;100.00
23433;BME280;41331;45.412;10.992;2023-01-09T04:46:45;99673.97;;;7.86;100.00
23433;BME280;41331;45.412;10.992;2023-01-09T04:49:12;99673.38;;;7.80;100.00
23433;BME280;41331;45.412;10.992;2023-01-09T04:51:40;99669.34;;;7.86;100.00
23433;BME280;41331;45.412;10.992;2023-01-09T04:54:08;99673.78;;;7.91;100.00
23433;BME280;41331;45.412;10.992;2023-01-09T04:56:37;99667.56;;;7.90;100.00
23433;BME280;41331;45.412;10.992;2023-01-09T04:59:05;99669.84;;;7.88;100.00
23433;BME280;41331;45.412;10.992;2023-01-09T05:01:33;99666.78;;;7.90;100.00
23433;BME280;41331;45.412;10.992;2023-01-09T05:04:01;99668.75;;;8.01;100.00
23433;BME280;41331;45.412;10.992;2023-01-09T05:06:28;99670.88;;;7.96;100.00
23433;BME280;41331;45.412;10.992;2023-01-09T05:08:57;99653.97;;;7.99;100.00
23433;BME280;41331;45.412;10.992;2023-01-09T05:11:24;99660.63;;;8.01;100.00
23433;BME280;41331;45.412;10.992;2023-01-09T05:13:53;99667.72;;;7.94;100.00
23433;BME280;41331;45.412;10.992;2023-01-09T05:16:20;99666.72;;;7.98;100.00
23433;BME280;41331;45.412;10.992;2023-01-09T05:18:47;99671.75;;;8.09;100.00
23433;BME280;41331;45.412;10.992;2023-01-09T05:21:15;99671.34;;;7.98;100.00
23433;BME280;41331;45.412;10.992;2023-01-09T05:23:42;99673.13;;;7.94;100.00
23433;BME280;41331;45.412;10.992;2023-01-09T05:26:10;99676.75;;;7.98;100.00
23433;BME280;41331;45.412;10.992;2023-01-09T05:28:37;99679.06;;;7.87;100.00
23433;BME280;41331;45.412;10.992;2023-01-09T05:31:05;99681.75;;;7.87;100.00
23433;BME280;41331;45.412;10.992;2023-01-09T05:33:32;99686.16;;;8.00;100.00
23433;BME280;41331;45.412;10.992;2023-01-09T05:35:59;99688.47;;;7.90;100.00
23433;BME280;41331;45.412;10.992;2023-01-09T05:38:27;99692.47;;;7.84;100.00
23433;BME280;41331;45.412;10.992;2023-01-09T05:40:54;99686.53;;;7.90;100.00
23433;BME280;41331;45.412;10.992;2023-01-09T05:43:21;99687.66;;;7.89;100.00
23433;BME280;41331;45.412;10.992;2023-01-09T05:45:49;99689.09;;;7.87;100.00
23433;BME280;41331;45.412;10.992;2023-01-09T05:48:16;99687.63;;;7.68;100.00
23433;BME280;41331;45.412;10.992;2023-01-09T05:50:44;99683.09;;;7.81;100.00
23433;BME280;41331;45.412;10.992;2023-01-09T05:53:11;99684.16;;;7.89;100.00
23433;BME280;41331;45.412;10.992;2023-01-09T05:55:39;99683.22;;;7.85;100.00
23433;BME280;41331;45.412;10.992;2023-01-09T05:58:06;99687.00;;;7.92;100.00
23433;BME280;41331;45.412;10.992;2023-01-09T06:00:34;99694.47;;;7.95;100.00
23433;BME280;41331;45.412;10.992;2023-01-09T06:03:01;99694.03;;;7.93;100.00
23433;BME280;41331;45.412;10.992;2023-01-09T06:05:29;99693.50;;;8.00;100.00
23433;BME280;41331;45.412;10.992;2023-01-09T06:07:56;99701.06;;;7.86;100.00
23433;BME280;41331;45.412;10.992;2023-01-09T06:10:24;99690.59;;;7.75;100.00
23433;BME280;41331;45.412;10.992;2023-01-09T06:12:51;99688.59;;;7.64;100.00
23433;BME280;41331;45.412;10.992;2023-01-09T06:15:20;99699.75;;;7.62;100.00
23433;BME280;41331;45.412;10.992;2023-01-09T06:17:48;99691.78;;;7.66;100.00
23433;BME280;41331;45.412;10.992;2023-01-09T06:20:15;99694.63;;;7.69;100.00
23433;BME280;41331;45.412;10.992;2023-01-09T06:22:42;99698.50;;;7.60;100.00
23433;BME280;41331;45.412;10.992;2023-01-09T06:25:12;99691.94;;;7.69;100.00
23433;BME280;41331;45.412;10.992;2023-01-09T06:27:39;99698.47;;;7.68;100.00
23433;BME280;41331;45.412;10.992;2023-01-09T06:30:09;99711.38;;;7.63;100.00
23433;BME280;41331;45.412;10.992;2023-01-09T06:32:36;99687.81;;;7.63;100.00
23433;BME280;41331;45.412;10.992;2023-01-09T06:35:04;99702.28;;;7.67;100.00
23433;BME280;41331;45.412;10.992;2023-01-09T06:37:31;99715.88;;;7.59;100.00
23433;BME280;41331;45.412;10.992;2023-01-09T06:39:59;99701.03;;;7.65;100.00
23433;BME280;41331;45.412;10.992;2023-01-09T06:42:26;99714.41;;;7.61;100.00
23433;BME280;41331;45.412;10.992;2023-01-09T06:44:54;99716.84;;;7.54;100.00
23433;BME280;41331;45.412;10.992;2023-01-09T06:47:21;99701.72;;;7.53;100.00
23433;BME280;41331;45.412;10.992;2023-01-09T06:49:49;99701.84;;;7.57;100.00
23433;BME280;41331;45.412;10.992;2023-01-09T06:52:16;99698.00;;;7.58;100.00
23433;BME280;41331;45.412;10.992;2023-01-09T06:54:44;99702.69;;;7.48;100.00
23433;BME280;41331;45.412;10.992;2023-01-09T06:57:11;99704.31;;;7.41;100.00
23433;BME280;41331;45.412;10.992;2023-01-09T06:59:40;99685.59;;;7.57;100.00
23433;BME280;41331;45.412;10.992;2023-01-09T07:02:16;99687.19;;;7.58;100.00
23433;BME280;41331;45.412;10.992;2023-01-09T07:04:44;99690.31;;;7.39;100.00
23433;BME280;41331;45.412;10.992;2023-01-09T07:07:12;99685.81;;;7.43;100.00
23433;BME280;41331;45.412;10.992;2023-01-09T07:09:39;99684.66;;;7.52;100.00
23433;BME280;41331;45.412;10.992;2023-01-09T07:12:07;99674.31;;;7.55;100.00
23433;BME280;41331;45.412;10.992;2023-01-09T07:14:35;99667.44;;;7.57;100.00
23433;BME280;41331;45.412;10.992;2023-01-09T07:17:02;99664.88;;;7.61;100.00
23433;BME280;41331;45.412;10.992;2023-01-09T07:19:29;99681.91;;;7.61;100.00
23433;BME280;41331;45.412;10.992;2023-01-09T07:21:57;99692.41;;;7.63;100.00
23433;BME280;41331;45.412;10.992;2023-01-09T07:24:24;99688.13;;;7.62;100.00
23433;BME280;41331;45.412;10.992;2023-01-09T07:26:51;99688.59;;;7.64;100.00
23433;BME280;41331;45.412;10.992;2023-01-09T07:29:19;99692.00;;;7.82;100.00
23433;BME280;41331;45.412;10.992;2023-01-09T07:31:46;99693.59;;;7.83;100.00
23433;BME280;41331;45.412;10.992;2023-01-09T07:34:14;99689.28;;;7.82;100.00
23433;BME280;41331;45.412;10.992;2023-01-09T07:36:41;99696.03;;;7.75;100.00
23433;BME280;41331;45.412;10.992;2023-01-09T07:39:12;99679.44;;;7.77;100.00
23433;BME280;41331;45.412;10.992;2023-01-09T07:41:40;99668.00;;;7.71;100.00
23433;BME280;41331;45.412;10.992;2023-01-09T07:44:09;99658.56;;;7.77;100.00
23433;BME280;41331;45.412;10.992;2023-01-09T07:46:37;99657.75;;;7.77;100.00
23433;BME280;41331;45.412;10.992;2023-01-09T07:49:05;99654.25;;;7.76;100.00
23433;BME280;41331;45.412;10.992;2023-01-09T07:51:33;99649.84;;;7.72;100.00
23433;BME280;41331;45.412;10.992;2023-01-09T07:54:00;99636.16;;;7.68;100.00
23433;BME280;41331;45.412;10.992;2023-01-09T07:56:28;99633.91;;;7.70;100.00
23433;BME280;41331;45.412;10.992;2023-01-09T07:58:55;99628.69;;;7.65;100.00
23433;BME280;41331;45.412;10.992;2023-01-09T08:01:22;99633.13;;;7.70;100.00
23433;BME280;41331;45.412;10.992;2023-01-09T08:03:50;99635.03;;;7.69;100.00
23433;BME280;41331;45.412;10.992;2023-01-09T08:06:17;99637.00;;;7.60;100.00
23433;BME280;41331;45.412;10.992;2023-01-09T08:08:45;99636.81;;;7.65;100.00
23433;BME280;41331;45.412;10.992;2023-01-09T08:11:12;99623.50;;;7.51;100.00
23433;BME280;41331;45.412;10.992;2023-01-09T08:13:39;99624.84;;;7.66;100.00
23433;BME280;41331;45.412;10.992;2023-01-09T08:16:07;99634.97;;;7.78;100.00
23433;BME280;41331;45.412;10.992;2023-01-09T08:18:34;99643.47;;;7.68;100.00
23433;BME280;41331;45.412;10.992;2023-01-09T08:21:02;99643.03;;;7.66;100.00
23433;BME280;41331;45.412;10.992;2023-01-09T08:23:29;99646.25;;;7.89;100.00
23433;BME280;41331;45.412;10.992;2023-01-09T08:25:57;99649.25;;;7.87;100.00
23433;BME280;41331;45.412;10.992;2023-01-09T08:28:24;99655.28;;;7.93;100.00
23433;BME280;41331;45.412;10.992;2023-01-09T08:30:51;99656.94;;;8.06;100.00
23433;BME280;41331;45.412;10.992;2023-01-09T08:33:19;99661.63;;;7.97;100.00
23433;BME280;41331;45.412;10.992;2023-01-09T08:35:46;99667.97;;;8.01;100.00
23433;BME280;41331;45.412;10.992;2023-01-09T08:38:14;99661.38;;;7.90;100.00
23433;BME280;41331;45.412;10.992;2023-01-09T08:40:41;99647.47;;;7.91;100.00
23433;BME280;41331;45.412;10.992;2023-01-09T08:43:08;99638.91;;;7.89;100.00
23433;BME280;41331;45.412;10.992;2023-01-09T08:45:55;99635.78;;;7.99;100.00
23433;BME280;41331;45.412;10.992;2023-01-09T08:48:46;99633.47;;;8.10;100.00
23433;BME280;41331;45.412;10.992;2023-01-09T08:51:14;99642.41;;;8.11;100.00
23433;BME280;41331;45.412;10.992;2023-01-09T08:53:41;99655.03;;;8.07;100.00
23433;BME280;41331;45.412;10.992;2023-01-09T08:56:09;99658.91;;;7.97;100.00
23433;BME280;41331;45.412;10.992;2023-01-09T08:58:36;99655.16;;;8.10;100.00
23433;BME280;41331;45.412;10.992;2023-01-09T09:01:05;99654.81;;;8.12;100.00
23433;BME280;41331;45.412;10.992;2023-01-09T09:03:33;99656.88;;;8.15;100.00
23433;BME280;41331;45.412;10.992;2023-01-09T09:06:00;99642.78;;;8.21;100.00
23433;BME280;41331;45.412;10.992;2023-01-09T09:08:28;99648.50;;;8.28;100.00
23433;BME280;41331;45.412;10.992;2023-01-09T09:10:55;99646.69;;;8.32;100.00
23433;BME280;41331;45.412;10.992;2023-01-09T09:13:23;99643.72;;;8.25;100.00
23433;BME280;41331;45.412;10.992;2023-01-09T09:15:50;99643.66;;;8.34;100.00
23433;BME280;41331;45.412;10.992;2023-01-09T09:18:18;99654.91;;;8.24;100.00
23433;BME280;41331;45.412;10.992;2023-01-09T09:20:45;99649.38;;;8.32;100.00
23433;BME280;41331;45.412;10.992;2023-01-09T09:23:12;99642.34;;;8.40;100.00
23433;BME280;41331;45.412;10.992;2023-01-09T09:25:40;99636.94;;;8.40;100.00
23433;BME280;41331;45.412;10.992;2023-01-09T09:28:08;99648.38;;;8.58;100.00
23433;BME280;41331;45.412;10.992;2023-01-09T09:30:37;99651.72;;;8.64;100.00
23433;BME280;41331;45.412;10.992;2023-01-09T09:33:07;99657.78;;;8.61;100.00
23433;BME280;41331;45.412;10.992;2023-01-09T09:35:35;99649.00;;;8.64;100.00
23433;BME280;41331;45.412;10.992;2023-01-09T09:38:03;99658.00;;;8.55;100.00
23433;BME280;41331;45.412;10.992;2023-01-09T09:40:50;99656.41;;;8.54;100.00
23433;BME280;41331;45.412;10.992;2023-01-09T09:43:35;99652.78;;;8.50;100.00
23433;BME280;41331;45.412;10.992;2023-01-09T09:46:42;99651.66;;;8.51;100.00
23433;BME280;41331;45.412;10.992;2023-01-09T09:49:18;99637.38;;;8.42;100.00
23433;BME280;41331;45.412;10.992;2023-01-09T09:54:33;99636.09;;;8.61;100.00
23433;BME280;41331;45.412;10.992;2023-01-09T09:57:02;99645.59;;;8.67;100.00
23433;BME280;41331;45.412;10.992;2023-01-09T09:59:33;99640.97;;;8.67;100.00
23433;BME280;41331;45.412;10.992;2023-01-09T10:02:13;99642.44;;;8.65;100.00
23433;BME280;41331;45.412;10.992;2023-01-09T10:04:53;99631.59;;;8.65;100.00
23433;BME280;41331;45.412;10.992;2023-01-09T10:07:27;99640.88;;;8.76;100.00
23433;BME280;41331;45.412;10.992;2023-01-09T10:10:00;99639.19;;;8.71;100.00
23433;BME280;41331;45.412;10.992;2023-01-09T10:12:30;99637.13;;;8.68;100.00
23433;BME280;41331;45.412;10.992;2023-01-09T10:15:08;99639.03;;;8.68;100.00
23433;BME280;41331;45.412;10.992;2023-01-09T10:20:47;99626.75;;;8.70;100.00
23433;BME280;41331;45.412;10.992;2023-01-09T10:34:47;99620.84;;;8.68;100.00
23433;BME280;41331;45.412;10.992;2023-01-09T10:37:32;99611.59;;;8.69;100.00
23433;BME280;41331;45.412;10.992;2023-01-09T10:40:18;99611.91;;;8.68;100.00
23433;BME280;41331;45.412;10.992;2023-01-09T10:42:59;99608.88;;;8.69;100.00
23433;BME280;41331;45.412;10.992;2023-01-09T10:45:30;99622.69;;;8.76;100.00
23433;BME280;41331;45.412;10.992;2023-01-09T10:48:15;99624.19;;;8.86;100.00
23433;BME280;41331;45.412;10.992;2023-01-09T10:50:44;99632.00;;;9.00;100.00
23433;BME280;41331;45.412;10.992;2023-01-09T10:53:22;99630.03;;;8.88;100.00
23433;BME280;41331;45.412;10.992;2023-01-09T10:55:53;99626.66;;;8.79;100.00
23433;BME280;41331;45.412;10.992;2023-01-09T10:58:22;99621.09;;;8.75;100.00
23433;BME280;41331;45.412;10.992;2023-01-09T11:00:50;99620.38;;;8.54;100.00
23433;BME280;41331;45.412;10.992;2023-01-09T11:03:20;99615.25;;;8.52;100.00
23433;BME280;41331;45.412;10.992;2023-01-09T11:05:53;99621.97;;;8.67;100.00
23433;BME280;41331;45.412;10.992;2023-01-09T11:08:27;99631.03;;;8.71;100.00
23433;BME280;41331;45.412;10.992;2023-01-09T11:10:59;99621.25;;;8.58;100.00
23433;BME280;41331;45.412;10.992;2023-01-09T11:16:20;99615.56;;;8.72;100.00
23433;BME280;41331;45.412;10.992;2023-01-09T11:18:59;99616.44;;;8.64;100.00
23433;BME280;41331;45.412;10.992;2023-01-09T11:27:14;99616.53;;;8.55;100.00
23433;BME280;41331;45.412;10.992;2023-01-09T11:29:41;99623.47;;;8.65;100.00
23433;BME280;41331;45.412;10.992;2023-01-09T11:32:35;99617.81;;;8.70;100.00
23433;BME280;41331;45.412;10.992;2023-01-09T11:35:12;99605.47;;;8.60;100.00
23433;BME280;41331;45.412;10.992;2023-01-09T11:37:41;99598.91;;;8.61;100.00
23433;BME280;41331;45.412;10.992;2023-01-09T11:40:18;99601.97;;;8.60;100.00
23433;BME280;41331;45.412;10.992;2023-01-09T11:43:07;99588.94;;;8.53;100.00
23433;BME280;41331;45.412;10.992;2023-01-09T11:45:42;99581.97;;;8.64;100.00
23433;BME280;41331;45.412;10.992;2023-01-09T11:51:16;99577.38;;;8.89;100.00
23433;BME280;41331;45.412;10.992;2023-01-09T11:56:38;99562.78;;;9.18;100.00
23433;BME280;41331;45.412;10.992;2023-01-09T11:59:14;99557.94;;;8.99;100.00
23433;BME280;41331;45.412;10.992;2023-01-09T12:02:04;99547.88;;;9.12;100.00
23433;BME280;41331;45.412;10.992;2023-01-09T12:05:42;99549.34;;;9.10;100.00
23433;BME280;41331;45.412;10.992;2023-01-09T12:08:14;99553.06;;;8.93;100.00
23433;BME280;41331;45.412;10.992;2023-01-09T12:16:12;99553.19;;;8.84;100.00
23433;BME280;41331;45.412;10.992;2023-01-09T12:30:28;99534.28;;;9.24;100.00
23433;BME280;41331;45.412;10.992;2023-01-09T12:33:22;99532.97;;;9.58;100.00
23433;BME280;41331;45.412;10.992;2023-01-09T12:38:46;99504.47;;;9.65;100.00
23433;BME280;41331;45.412;10.992;2023-01-09T12:46:40;99501.06;;;9.96;100.00
23433;BME280;41331;45.412;10.992;2023-01-09T12:49:32;99493.78;;;10.44;100.00
23433;BME280;41331;45.412;10.992;2023-01-09T12:52:19;99497.59;;;10.55;100.00
23433;BME280;41331;45.412;10.992;2023-01-09T12:55:11;99502.56;;;10.69;100.00
23433;BME280;41331;45.412;10.992;2023-01-09T12:57:48;99495.81;;;10.78;100.00
23433;BME280;41331;45.412;10.992;2023-01-09T13:00:26;99492.66;;;10.92;100.00
23433;BME280;41331;45.412;10.992;2023-01-09T13:03:04;99479.31;;;10.87;100.00
23433;BME280;41331;45.412;10.992;2023-01-09T13:05:39;99472.78;;;11.07;100.00
23433;BME280;41331;45.412;10.992;2023-01-09T13:08:32;99477.28;;;11.00;100.00
23433;BME280;41331;45.412;10.992;2023-01-09T13:11:11;99472.22;;;11.18;100.00
23433;BME280;41331;45.412;10.992;2023-01-09T13:16:35;99467.09;;;10.97;100.00
23433;BME280;41331;45.412;10.992;2023-01-09T13:19:20;99462.81;;;10.80;100.00
23433;BME280;41331;45.412;10.992;2023-01-09T13:21:50;99457.72;;;10.47;100.00
23433;BME280;41331;45.412;10.992;2023-01-09T13:24:34;99451.66;;;10.37;100.00
23433;BME280;41331;45.412;10.992;2023-01-09T13:27:08;99443.41;;;10.34;100.00
23433;BME280;41331;45.412;10.992;2023-01-09T13:29:39;99441.84;;;10.33;100.00
23433;BME280;41331;45.412;10.992;2023-01-09T13:34:52;99444.53;;;10.17;100.00
23433;BME280;41331;45.412;10.992;2023-01-09T13:37:33;99424.59;;;9.97;100.00
23433;BME280;41331;45.412;10.992;2023-01-09T13:43:05;99438.94;;;9.82;100.00
23433;BME280;41331;45.412;10.992;2023-01-09T13:45:36;99433.25;;;9.87;100.00
23433;BME280;41331;45.412;10.992;2023-01-09T13:50:40;99436.72;;;9.72;100.00
23433;BME280;41331;45.412;10.992;2023-01-09T13:56:10;99424.91;;;9.80;100.00
23433;BME280;41331;45.412;10.992;2023-01-09T14:06:41;99436.34;;;10.29;100.00
23433;BME280;41331;45.412;10.992;2023-01-09T14:11:45;99441.78;;;10.45;100.00
23433;BME280;41331;45.412;10.992;2023-01-09T14:14:21;99440.38;;;10.35;100.00
23433;BME280;41331;45.412;10.992;2023-01-09T14:16:51;99435.44;;;10.57;100.00
23433;BME280;41331;45.412;10.992;2023-01-09T14:19:25;99446.06;;;10.62;100.00
23433;BME280;41331;45.412;10.992;2023-01-09T14:21:56;99455.31;;;10.93;100.00
23433;BME280;41331;45.412;10.992;2023-01-09T14:24:47;99454.81;;;10.71;100.00
23433;BME280;41331;45.412;10.992;2023-01-09T14:38:51;99457.34;;;9.89;100.00
23433;BME280;41331;45.412;10.992;2023-01-09T14:41:23;99444.13;;;9.87;100.00
23433;BME280;41331;45.412;10.992;2023-01-09T14:46:47;99449.66;;;9.63;100.00
23433;BME280;41331;45.412;10.992;2023-01-09T14:49:39;99433.53;;;9.54;100.00
23433;BME280;41331;45.412;10.992;2023-01-09T14:52:34;99443.56;;;9.53;100.00
23433;BME280;41331;45.412;10.992;2023-01-09T14:55:15;99436.25;;;9.54;100.00
23433;BME280;41331;45.412;10.992;2023-01-09T14:57:45;99441.22;;;9.52;100.00
23433;BME280;41331;45.412;10.992;2023-01-09T15:00:18;99448.19;;;9.65;100.00
23433;BME280;41331;45.412;10.992;2023-01-09T15:02:46;99447.84;;;9.67;100.00
23433;BME280;41331;45.412;10.992;2023-01-09T15:05:20;99444.19;;;9.75;100.00
23433;BME280;41331;45.412;10.992;2023-01-09T15:07:55;99454.44;;;9.53;100.00
23433;BME280;41331;45.412;10.992;2023-01-09T15:10:28;99449.84;;;9.42;100.00
23433;BME280;41331;45.412;10.992;2023-01-09T15:12:59;99452.38;;;9.34;100.00
23433;BME280;41331;45.412;10.992;2023-01-09T15:15:27;99445.56;;;9.28;100.00
23433;BME280;41331;45.412;10.992;2023-01-09T15:18:03;99440.72;;;9.22;100.00
23433;BME280;41331;45.412;10.992;2023-01-09T15:20:32;99448.44;;;9.20;100.00